createdAt,value
2018-08-19T00:02:34.581Z,19.80
2018-08-19T00:05:17.480Z,19.70
2018-08-19T00:07:54.463Z,19.80
2018-08-19T00:10:49.775Z,19.70
2018-08-19T00:13:26.427Z,19.70
2018-08-19T00:16:02.052Z,19.70
2018-08-19T00:18:38.543Z,19.70
2018-08-19T00:21:14.462Z,19.60
2018-08-19T00:23:51.749Z,19.60
2018-08-19T00:26:27.841Z,19.70
2018-08-19T00:29:05.226Z,19.70
2018-08-19T00:31:41.186Z,19.70
2018-08-19T00:34:21.953Z,19.60
2018-08-19T00:36:58.078Z,19.50
2018-08-19T00:39:34.870Z,19.40
2018-08-19T00:42:11.190Z,19.40
2018-08-19T00:44:47.988Z,19.30
2018-08-19T00:47:24.156Z,19.30
2018-08-19T00:50:03.308Z,19.40
2018-08-19T00:52:39.879Z,19.50
2018-08-19T00:55:17.302Z,19.50
2018-08-19T00:57:57.251Z,19.40
2018-08-19T01:00:33.368Z,19.50
2018-08-19T01:03:10.598Z,19.50
2018-08-19T01:05:46.557Z,19.50
2018-08-19T01:08:22.545Z,19.50
2018-08-19T01:10:59.333Z,19.50
2018-08-19T01:13:36.980Z,19.50
2018-08-19T01:16:12.837Z,19.60
2018-08-19T01:18:53.505Z,19.50
2018-08-19T01:21:31.032Z,19.40
2018-08-19T01:24:11.393Z,19.40
2018-08-19T01:26:48.116Z,19.40
2018-08-19T01:29:39.076Z,19.40
2018-08-19T01:32:15.655Z,19.40
2018-08-19T01:34:52.908Z,19.40
2018-08-19T01:37:29.375Z,19.40
2018-08-19T01:40:09.737Z,19.40
2018-08-19T01:42:46.397Z,19.40
2018-08-19T01:45:22.879Z,19.50
2018-08-19T01:48:00.017Z,19.40
2018-08-19T01:50:36.414Z,19.40
2018-08-19T01:53:12.399Z,19.30
2018-08-19T01:55:49.096Z,19.30
2018-08-19T01:58:25.582Z,19.20
2018-08-19T02:01:01.337Z,19.20
2018-08-19T02:03:37.752Z,19.30
2018-08-19T02:06:13.907Z,19.30
2018-08-19T02:08:49.880Z,19.40
2018-08-19T02:11:32.028Z,19.50
2018-08-19T02:14:08.501Z,19.40
2018-08-19T02:16:44.620Z,19.40
2018-08-19T02:19:22.142Z,20.50
2018-08-19T02:21:58.484Z,19.30
2018-08-19T02:24:35.259Z,19.40
2018-08-19T02:27:11.397Z,19.50
2018-08-19T02:29:49.312Z,19.30
2018-08-19T02:32:26.496Z,19.20
2018-08-19T02:35:03.466Z,19.10
2018-08-19T02:37:39.292Z,19.20
2018-08-19T02:40:19.318Z,19.10
2018-08-19T02:42:55.442Z,19.10
2018-08-19T02:45:30.921Z,19.20
2018-08-19T02:48:07.540Z,19.20
2018-08-19T02:50:43.829Z,19.30
2018-08-19T02:53:22.132Z,19.20
2018-08-19T02:55:58.543Z,19.20
2018-08-19T02:58:36.080Z,19.20
2018-08-19T03:01:14.377Z,19.20
2018-08-19T03:03:49.977Z,19.10
2018-08-19T03:06:26.626Z,19.10
2018-08-19T03:09:03.042Z,19.00
2018-08-19T03:11:40.692Z,18.90
2018-08-19T03:14:16.634Z,18.90
2018-08-19T03:16:53.042Z,18.80
2018-08-19T03:19:29.128Z,18.70
2018-08-19T03:22:05.932Z,18.60
2018-08-19T03:24:43.504Z,18.70
2018-08-19T03:27:21.603Z,18.80
2018-08-19T03:29:59.675Z,18.70
2018-08-19T03:32:36.044Z,18.70
2018-08-19T03:35:16.345Z,18.80
2018-08-19T03:37:54.035Z,18.70
2018-08-19T03:40:30.659Z,18.60
2018-08-19T03:43:08.265Z,18.50
2018-08-19T03:45:45.261Z,18.40
2018-08-19T03:48:24.044Z,18.30
2018-08-19T03:51:00.716Z,18.30
2018-08-19T03:53:38.078Z,18.30
2018-08-19T03:56:20.882Z,18.30
2018-08-19T03:58:58.953Z,18.30
2018-08-19T04:01:40.681Z,18.30
2018-08-19T04:04:18.194Z,18.30
2018-08-19T04:06:53.971Z,18.30
2018-08-19T04:09:29.975Z,18.20
2018-08-19T04:12:14.199Z,18.20
2018-08-19T04:14:52.043Z,18.20
2018-08-19T04:17:28.065Z,18.20
2018-08-19T04:20:06.432Z,18.20
2018-08-19T04:22:42.324Z,18.20
2018-08-19T04:25:22.817Z,18.20
2018-08-19T04:27:59.281Z,18.30
2018-08-19T04:30:36.068Z,18.30
2018-08-19T04:33:11.747Z,18.50
2018-08-19T04:35:48.424Z,18.60
2018-08-19T04:38:26.281Z,18.60
2018-08-19T04:41:02.024Z,18.60
2018-08-19T04:43:39.390Z,18.70
2018-08-19T04:46:16.388Z,18.70
2018-08-19T04:48:53.424Z,18.70
2018-08-19T04:51:30.025Z,18.70
2018-08-19T04:54:06.521Z,18.80
2018-08-19T04:56:43.847Z,18.90
2018-08-19T04:59:20.147Z,19.00
2018-08-19T05:01:57.928Z,19.10
2018-08-19T05:04:35.543Z,19.20
2018-08-19T05:07:12.284Z,19.30
2018-08-19T05:09:48.064Z,19.40
2018-08-19T05:12:24.818Z,19.40
2018-08-19T05:15:00.809Z,19.40
2018-08-19T05:17:38.255Z,19.50
2018-08-19T05:20:15.409Z,19.50
2018-08-19T05:22:52.249Z,19.40
2018-08-19T05:25:28.407Z,19.30
2018-08-19T05:28:06.546Z,19.30
2018-08-19T05:30:42.616Z,19.40
2018-08-19T05:33:19.928Z,19.70
2018-08-19T05:35:58.282Z,19.70
2018-08-19T05:38:34.801Z,19.90
2018-08-19T05:41:11.049Z,20.30
2018-08-19T05:43:48.401Z,20.40
2018-08-19T05:46:26.300Z,20.50
2018-08-19T05:49:05.025Z,20.60
2018-08-19T05:51:41.240Z,20.60
2018-08-19T05:54:17.104Z,20.60
2018-08-19T05:56:56.785Z,20.60
2018-08-19T05:59:33.288Z,20.70
2018-08-19T06:02:09.479Z,20.70
2018-08-19T06:04:45.636Z,21.00
2018-08-19T06:07:21.938Z,21.30
2018-08-19T06:09:58.405Z,21.40
2018-08-19T06:12:35.776Z,21.60
2018-08-19T06:15:12.237Z,21.60
2018-08-19T06:17:49.548Z,21.70
2018-08-19T06:20:28.897Z,21.80
2018-08-19T06:23:04.845Z,21.90
2018-08-19T06:25:41.069Z,22.00
2018-08-19T06:28:18.899Z,22.00
2018-08-19T06:30:55.484Z,22.50
2018-08-19T06:33:31.527Z,22.50
2018-08-19T06:36:09.121Z,22.60
2018-08-19T06:38:46.323Z,22.70
2018-08-19T06:41:23.407Z,22.50
2018-08-19T06:44:00.779Z,22.60
2018-08-19T06:46:36.838Z,22.90
2018-08-19T06:49:18.046Z,23.10
2018-08-19T06:51:54.792Z,23.40
2018-08-19T06:54:33.277Z,23.90
2018-08-19T06:57:11.490Z,24.20
2018-08-19T06:59:49.829Z,24.00
2018-08-19T07:02:27.082Z,24.00
2018-08-19T07:05:06.454Z,24.30
2018-08-19T07:07:45.583Z,24.70
2018-08-19T07:10:29.189Z,24.90
2018-08-19T07:13:12.193Z,24.70
2018-08-19T07:15:49.436Z,24.50
2018-08-19T07:18:26.305Z,24.50
2018-08-19T07:21:03.840Z,24.50
2018-08-19T07:23:40.244Z,24.40
2018-08-19T07:26:17.680Z,24.30
2018-08-19T07:28:56.115Z,24.10
2018-08-19T07:31:33.766Z,24.10
2018-08-19T07:34:10.324Z,24.30
2018-08-19T07:36:47.882Z,24.50
2018-08-19T07:39:24.899Z,24.90
2018-08-19T07:42:01.674Z,25.10
2018-08-19T07:44:38.632Z,25.40
2018-08-19T07:47:17.941Z,25.30
2018-08-19T07:49:56.052Z,25.10
2018-08-19T07:52:35.397Z,25.50
2018-08-19T07:55:14.104Z,26.10
2018-08-19T07:57:52.843Z,26.50
2018-08-19T08:00:35.176Z,27.50
2018-08-19T08:03:15.880Z,29.10
2018-08-19T08:05:54.123Z,30.30
2018-08-19T08:08:33.143Z,30.60
2018-08-19T08:11:09.715Z,31.70
2018-08-19T08:13:48.314Z,32.50
2018-08-19T08:16:26.093Z,32.70
2018-08-19T08:19:02.842Z,34.00
2018-08-19T08:21:41.805Z,34.70
2018-08-19T08:24:22.705Z,34.80
2018-08-19T08:27:01.592Z,35.40
2018-08-19T08:29:39.898Z,35.60
2018-08-19T08:32:16.748Z,35.20
2018-08-19T08:34:54.576Z,35.40
2018-08-19T08:37:32.713Z,36.10
2018-08-19T08:40:12.522Z,37.00
2018-08-19T08:42:51.663Z,36.40
2018-08-19T08:45:33.040Z,36.80
2018-08-19T08:48:10.332Z,36.80
2018-08-19T08:50:46.804Z,37.20
2018-08-19T08:53:32.128Z,37.30
2018-08-19T08:56:09.129Z,37.50
2018-08-19T08:58:47.867Z,38.30
2018-08-19T09:01:25.919Z,38.10
2018-08-19T09:04:03.650Z,37.30
2018-08-19T09:06:41.391Z,36.90
2018-08-19T09:09:21.295Z,37.20
2018-08-19T09:11:58.473Z,37.80
2018-08-19T09:14:37.413Z,38.60
2018-08-19T09:17:14.953Z,38.30
2018-08-19T09:19:52.867Z,38.30
2018-08-19T09:22:30.460Z,38.50
2018-08-19T09:25:10.098Z,38.60
2018-08-19T09:27:47.622Z,38.40
2018-08-19T09:30:36.369Z,38.90
2018-08-19T09:33:14.375Z,39.90
2018-08-19T09:35:51.771Z,39.40
2018-08-19T09:38:28.176Z,39.70
2018-08-19T09:41:06.240Z,39.00
2018-08-19T09:43:44.749Z,38.50
2018-08-19T09:46:23.154Z,38.80
2018-08-19T09:49:03.528Z,39.10
2018-08-19T09:51:40.175Z,40.50
2018-08-19T09:54:22.567Z,40.40
2018-08-19T09:57:00.964Z,40.00
2018-08-19T09:59:41.728Z,40.60
2018-08-19T10:02:20.227Z,40.50
2018-08-19T10:04:57.195Z,41.00
2018-08-19T10:07:37.338Z,40.90
2018-08-19T10:10:14.999Z,41.60
2018-08-19T10:12:55.411Z,40.80
2018-08-19T10:15:33.232Z,40.70
2018-08-19T10:18:12.335Z,41.40
2018-08-19T10:20:49.930Z,41.60
2018-08-19T10:23:28.170Z,41.00
2018-08-19T10:26:09.592Z,40.40
2018-08-19T10:28:47.515Z,40.60
2018-08-19T10:31:25.612Z,41.10
2018-08-19T10:34:04.095Z,41.20
2018-08-19T10:36:41.471Z,42.20
2018-08-19T10:39:20.662Z,41.80
2018-08-19T10:42:18.776Z,42.20
2018-08-19T10:44:56.034Z,41.60
2018-08-19T10:47:33.268Z,41.40
2018-08-19T10:50:09.337Z,40.00
2018-08-19T10:52:46.962Z,39.90
2018-08-19T10:55:27.041Z,40.50
2018-08-19T10:58:03.403Z,40.20
2018-08-19T11:00:40.641Z,40.10
2018-08-19T11:03:18.641Z,39.70
2018-08-19T11:05:56.308Z,40.30
2018-08-19T11:08:33.522Z,40.30
2018-08-19T11:11:10.840Z,39.90
2018-08-19T11:13:48.661Z,39.90
2018-08-19T11:16:26.089Z,40.70
2018-08-19T11:19:03.354Z,40.90
2018-08-19T11:21:41.343Z,40.70
2018-08-19T11:24:26.653Z,40.90
2018-08-19T11:27:05.952Z,40.60
2018-08-19T11:29:43.165Z,40.40
2018-08-19T11:32:34.274Z,40.80
2018-08-19T11:35:11.756Z,41.80
2018-08-19T11:37:53.008Z,40.60
2018-08-19T11:40:29.207Z,40.30
2018-08-19T11:43:08.962Z,40.10
2018-08-19T11:45:45.739Z,40.10
2018-08-19T11:48:22.317Z,40.10
2018-08-19T11:51:00.980Z,40.30
2018-08-19T11:53:39.415Z,40.10
2018-08-19T11:56:17.047Z,40.10
2018-08-19T11:58:52.975Z,40.00
2018-08-19T12:01:29.837Z,39.80
2018-08-19T12:04:11.979Z,39.70
2018-08-19T12:06:49.547Z,39.60
2018-08-19T12:09:28.110Z,39.40
2018-08-19T12:12:04.788Z,39.60
2018-08-19T12:14:42.094Z,40.30
2018-08-19T12:17:19.075Z,40.20
2018-08-19T12:19:56.676Z,40.20
2018-08-19T12:22:35.544Z,39.80
2018-08-19T12:25:13.831Z,39.50
2018-08-19T12:27:51.559Z,39.30
2018-08-19T12:30:32.341Z,39.50
2018-08-19T12:33:25.361Z,40.60
2018-08-19T12:36:09.272Z,41.20
2018-08-19T12:38:46.838Z,41.20
2018-08-19T12:41:24.666Z,41.70
2018-08-19T12:44:03.162Z,42.40
2018-08-19T12:46:46.087Z,42.50
2018-08-19T12:49:22.993Z,41.50
2018-08-19T12:52:01.623Z,41.30
2018-08-19T12:54:40.215Z,41.00
2018-08-19T12:57:17.412Z,40.00
2018-08-19T13:00:01.667Z,40.60
2018-08-19T13:02:43.101Z,41.50
2018-08-19T13:05:20.336Z,41.40
2018-08-19T13:07:58.775Z,41.20
2018-08-19T13:10:51.616Z,41.30
2018-08-19T13:13:28.662Z,39.70
2018-08-19T13:16:07.094Z,40.30
2018-08-19T13:18:45.101Z,39.60
2018-08-19T13:21:23.678Z,38.20
2018-08-19T13:24:01.757Z,36.60
2018-08-19T13:26:38.108Z,35.40
2018-08-19T13:29:15.811Z,34.60
2018-08-19T13:31:54.931Z,34.20
2018-08-19T13:34:34.548Z,34.30
2018-08-19T13:37:13.126Z,34.20
2018-08-19T13:39:51.981Z,34.40
2018-08-19T13:42:30.105Z,34.40
2018-08-19T13:45:12.317Z,34.00
2018-08-19T13:47:51.686Z,33.80
2018-08-19T13:50:29.731Z,33.50
2018-08-19T13:53:07.955Z,33.70
2018-08-19T13:55:46.228Z,34.40
2018-08-19T13:58:23.866Z,34.90
2018-08-19T14:01:03.145Z,34.60
2018-08-19T14:03:40.296Z,32.70
2018-08-19T14:06:19.584Z,34.10
2018-08-19T14:08:58.591Z,33.70
2018-08-19T14:11:36.143Z,33.30
2018-08-19T14:14:14.909Z,33.70
2018-08-19T14:16:52.353Z,34.10
2018-08-19T14:19:30.052Z,33.80
2018-08-19T14:22:07.396Z,33.90
2018-08-19T14:24:45.836Z,34.30
2018-08-19T14:27:22.956Z,35.00
2018-08-19T14:30:02.396Z,35.50
2018-08-19T14:32:40.660Z,35.70
2018-08-19T14:35:17.791Z,36.20
2018-08-19T14:37:56.444Z,36.40
2018-08-19T14:40:33.768Z,36.30
2018-08-19T14:43:11.419Z,35.90
2018-08-19T14:45:51.726Z,35.90
2018-08-19T14:48:27.850Z,36.50
2018-08-19T14:51:05.048Z,35.90
2018-08-19T14:53:43.037Z,34.80
2018-08-19T14:56:19.670Z,33.90
2018-08-19T14:58:57.426Z,33.20
2018-08-19T15:01:35.798Z,32.70
2018-08-19T15:04:16.289Z,32.50
2018-08-19T15:06:53.939Z,32.60
2018-08-19T15:09:32.656Z,32.80
2018-08-19T15:12:16.550Z,32.60
2018-08-19T15:14:57.293Z,32.40
2018-08-19T15:17:36.462Z,32.50
2018-08-19T15:20:19.951Z,32.80
2018-08-19T15:23:13.257Z,32.70
2018-08-19T15:25:51.364Z,32.40
2018-08-19T15:28:29.372Z,31.90
2018-08-19T15:31:13.496Z,31.70
2018-08-19T15:33:51.998Z,31.50
2018-08-19T15:36:31.164Z,31.40
2018-08-19T15:39:09.884Z,31.50
2018-08-19T15:41:49.085Z,31.50
2018-08-19T15:44:27.573Z,31.30
2018-08-19T15:47:04.131Z,31.10
2018-08-19T15:49:41.169Z,30.80
2018-08-19T15:52:20.189Z,30.80
2018-08-19T15:55:00.566Z,30.60
2018-08-19T15:57:39.083Z,30.70
2018-08-19T16:00:18.785Z,30.80
2018-08-19T16:02:56.494Z,30.80
2018-08-19T16:05:34.106Z,31.00
2018-08-19T16:08:11.213Z,30.90
2018-08-19T16:10:50.036Z,30.90
2018-08-19T16:13:28.353Z,30.90
2018-08-19T16:16:04.932Z,30.90
2018-08-19T16:18:41.542Z,30.80
2018-08-19T16:21:20.301Z,30.70
2018-08-19T16:23:57.492Z,30.60
2018-08-19T16:26:35.243Z,30.60
2018-08-19T16:29:11.544Z,30.60
2018-08-19T16:31:48.033Z,30.60
2018-08-19T16:34:25.549Z,30.60
2018-08-19T16:37:03.024Z,30.60
2018-08-19T16:39:46.165Z,30.60
2018-08-19T16:42:22.679Z,30.50
2018-08-19T16:45:00.251Z,30.50
2018-08-19T16:47:37.539Z,30.50
2018-08-19T16:50:15.060Z,30.50
2018-08-19T16:52:52.564Z,30.50
2018-08-19T16:55:30.527Z,30.50
2018-08-19T16:58:07.852Z,30.20
2018-08-19T17:00:46.947Z,30.20
2018-08-19T17:03:34.926Z,30.10
2018-08-19T17:06:14.606Z,30.00
2018-08-19T17:08:51.726Z,29.90
2018-08-19T17:11:30.592Z,29.70
2018-08-19T17:14:08.001Z,29.50
2018-08-19T17:16:47.390Z,29.40
2018-08-19T17:19:28.837Z,29.30
2018-08-19T17:22:09.413Z,29.20
2018-08-19T17:24:46.258Z,29.10
2018-08-19T17:27:24.739Z,29.00
2018-08-19T17:30:04.213Z,28.90
2018-08-19T17:32:43.371Z,28.80
2018-08-19T17:35:20.352Z,28.70
2018-08-19T17:37:57.294Z,28.60
2018-08-19T17:40:35.313Z,28.50
2018-08-19T17:43:13.126Z,28.40
2018-08-19T17:45:50.109Z,28.30
2018-08-19T17:48:29.281Z,28.20
2018-08-19T17:51:22.443Z,28.10
2018-08-19T17:54:01.513Z,27.90
2018-08-19T17:56:38.818Z,27.80
2018-08-19T17:59:18.376Z,27.70
2018-08-19T18:01:55.522Z,27.70
2018-08-19T18:04:48.929Z,27.60
2018-08-19T18:07:28.558Z,27.50
2018-08-19T18:10:13.171Z,27.40
2018-08-19T18:12:50.412Z,27.30
2018-08-19T18:15:28.512Z,27.30
2018-08-19T18:18:05.569Z,27.20
2018-08-19T18:20:43.880Z,27.10
2018-08-19T18:23:26.833Z,27.00
2018-08-19T18:26:05.341Z,26.90
2018-08-19T18:28:46.213Z,26.80
2018-08-19T18:31:24.635Z,26.70
2018-08-19T18:34:02.400Z,26.60
2018-08-19T18:36:39.907Z,26.50
2018-08-19T18:39:17.997Z,26.40
2018-08-19T18:41:55.372Z,26.30
2018-08-19T18:44:38.060Z,26.20
2018-08-19T18:47:15.204Z,26.10
2018-08-19T18:49:54.942Z,26.10
2018-08-19T18:52:31.993Z,26.00
2018-08-19T18:55:11.102Z,25.90
2018-08-19T18:57:50.957Z,25.80
2018-08-19T19:00:28.356Z,25.70
2018-08-19T19:03:07.713Z,25.60
2018-08-19T19:05:44.995Z,25.50
2018-08-19T19:08:22.692Z,25.40
2018-08-19T19:11:06.195Z,25.30
2018-08-19T19:13:43.411Z,25.40
2018-08-19T19:16:29.130Z,25.30
2018-08-19T19:19:06.546Z,25.30
2018-08-19T19:21:47.136Z,25.20
2018-08-19T19:24:28.669Z,25.10
2018-08-19T19:27:05.617Z,25.00
2018-08-19T19:29:44.739Z,25.00
2018-08-19T19:32:25.060Z,25.00
2018-08-19T19:35:10.615Z,24.90
2018-08-19T19:37:48.207Z,24.80
2018-08-19T19:40:25.163Z,24.70
2018-08-19T19:43:02.677Z,24.70
2018-08-19T19:45:44.448Z,24.70
2018-08-19T19:48:21.488Z,24.70
2018-08-19T19:50:58.058Z,24.60
2018-08-19T19:53:34.711Z,24.60
2018-08-19T19:56:12.558Z,24.40
2018-08-19T19:58:50.941Z,24.40
2018-08-19T20:01:27.169Z,24.30
2018-08-19T20:04:05.679Z,24.30
2018-08-19T20:06:42.112Z,24.20
2018-08-19T20:09:18.928Z,24.20
2018-08-19T20:11:55.558Z,24.20
2018-08-19T20:14:36.757Z,24.10
2018-08-19T20:17:13.973Z,24.10
2018-08-19T20:19:50.748Z,24.00
2018-08-19T20:22:28.796Z,24.00
2018-08-19T20:25:05.603Z,23.90
2018-08-19T20:27:42.813Z,24.00
2018-08-19T20:30:19.825Z,23.90
2018-08-19T20:32:57.046Z,23.80
2018-08-19T20:35:34.320Z,23.70
2018-08-19T20:38:12.172Z,23.60
2018-08-19T20:40:51.654Z,23.60
2018-08-19T20:43:29.356Z,23.60
2018-08-19T20:46:08.613Z,23.60
2018-08-19T20:48:46.647Z,23.50
2018-08-19T20:51:24.436Z,23.50
2018-08-19T20:54:03.402Z,23.40
2018-08-19T20:56:40.809Z,23.40
2018-08-19T20:59:23.442Z,23.40
2018-08-19T21:02:00.748Z,23.50
2018-08-19T21:04:39.878Z,23.40
2018-08-19T21:07:18.178Z,23.40
2018-08-19T21:09:54.883Z,23.40
2018-08-19T21:12:31.395Z,23.50
2018-08-19T21:15:08.761Z,23.50
2018-08-19T21:17:44.999Z,23.50
2018-08-19T21:20:21.744Z,23.60
2018-08-19T21:23:00.908Z,23.60
2018-08-19T21:25:48.072Z,23.60
2018-08-19T21:28:24.479Z,23.60
2018-08-19T21:31:01.634Z,23.60
2018-08-19T21:33:38.572Z,23.70
2018-08-19T21:36:17.001Z,23.60
2018-08-19T21:38:53.187Z,23.40
2018-08-19T21:41:47.509Z,23.40
2018-08-19T21:44:24.066Z,23.40
2018-08-19T21:47:01.342Z,23.30
2018-08-19T21:49:39.255Z,23.40
2018-08-19T21:52:20.817Z,23.20
2018-08-19T21:54:57.836Z,23.20
2018-08-19T21:57:34.468Z,23.10
2018-08-19T22:00:11.820Z,23.10
2018-08-19T22:02:53.250Z,23.10
2018-08-19T22:05:29.437Z,23.20
2018-08-19T22:08:08.053Z,23.20
2018-08-19T22:10:45.214Z,23.10
2018-08-19T22:13:21.486Z,23.10
2018-08-19T22:15:58.934Z,23.00
2018-08-19T22:18:35.794Z,23.00
2018-08-19T22:21:19.004Z,23.00
2018-08-19T22:23:56.557Z,22.90
2018-08-19T22:26:34.050Z,22.80
2018-08-19T22:29:21.710Z,22.70
2018-08-19T22:31:59.100Z,22.60
2018-08-19T22:34:36.016Z,22.40
2018-08-19T22:37:14.767Z,22.50
2018-08-19T22:39:52.291Z,22.60
2018-08-19T22:42:30.806Z,22.50
2018-08-19T22:45:09.064Z,22.30
2018-08-19T22:47:46.918Z,22.20
2018-08-19T22:50:24.662Z,22.10
2018-08-19T22:53:02.377Z,22.10
2018-08-19T22:55:39.044Z,22.00
2018-08-19T22:58:16.981Z,22.00
2018-08-19T23:00:52.824Z,21.90
2018-08-19T23:03:29.971Z,21.90
2018-08-19T23:06:05.796Z,21.80
2018-08-19T23:08:44.279Z,21.80
2018-08-19T23:11:19.928Z,21.80
2018-08-19T23:15:15.360Z,21.70
2018-08-19T23:17:51.547Z,21.70
2018-08-19T23:20:28.331Z,21.60
2018-08-19T23:23:05.062Z,21.60
2018-08-19T23:25:40.618Z,21.50
2018-08-19T23:28:16.648Z,21.50
2018-08-19T23:30:52.465Z,21.40
2018-08-19T23:33:28.839Z,21.50
2018-08-19T23:36:05.148Z,21.50
2018-08-19T23:38:41.984Z,21.50
2018-08-19T23:41:18.226Z,21.50
2018-08-19T23:43:55.385Z,21.50
2018-08-19T23:46:31.367Z,21.40
2018-08-19T23:49:07.263Z,21.40
2018-08-19T23:51:43.279Z,21.50
2018-08-19T23:54:19.875Z,21.40
2018-08-19T23:56:56.391Z,21.50
2018-08-19T23:59:35.684Z,21.60
